sensor_id;sensor_type;location;lat;lon;timestamp;pressure;altitude;pressure_sealevel;temperature;humidity
64343;BME280;50675;53.530;-6.312;2022-09-16T00:00:22;101448.03;;;13.46;63.23
64343;BME280;50675;53.530;-6.312;2022-09-16T00:02:50;101450.41;;;13.42;63.32
64343;BME280;50675;53.530;-6.312;2022-09-16T00:05:16;101457.66;;;13.37;63.08
64343;BME280;50675;53.530;-6.312;2022-09-16T00:07:42;101463.06;;;13.37;63.16
64343;BME280;50675;53.530;-6.312;2022-09-16T00:10:08;101454.84;;;13.32;63.25
64343;BME280;50675;53.530;-6.312;2022-09-16T00:12:34;101460.69;;;13.24;63.52
64343;BME280;50675;53.530;-6.312;2022-09-16T00:15:00;101463.09;;;13.20;63.34
64343;BME280;50675;53.530;-6.312;2022-09-16T00:17:26;101452.38;;;13.13;63.20
64343;BME280;50675;53.530;-6.312;2022-09-16T00:19:51;101457.69;;;13.08;63.38
64343;BME280;50675;53.530;-6.312;2022-09-16T00:22:17;101458.75;;;13.07;63.28
64343;BME280;50675;53.530;-6.312;2022-09-16T00:24:43;101464.66;;;13.04;63.45
64343;BME280;50675;53.530;-6.312;2022-09-16T00:27:08;101470.84;;;13.00;63.41
64343;BME280;50675;53.530;-6.312;2022-09-16T00:29:34;101470.97;;;12.93;63.55
64343;BME280;50675;53.530;-6.312;2022-09-16T00:32:00;101470.06;;;12.88;63.64
64343;BME280;50675;53.530;-6.312;2022-09-16T00:34:26;101474.69;;;12.87;63.65
64343;BME280;50675;53.530;-6.312;2022-09-16T00:36:52;101479.19;;;12.82;63.50
64343;BME280;50675;53.530;-6.312;2022-09-16T00:39:17;101485.06;;;12.79;63.52
64343;BME280;50675;53.530;-6.312;2022-09-16T00:41:43;101483.09;;;12.74;63.90
64343;BME280;50675;53.530;-6.312;2022-09-16T00:47:13;101492.66;;;12.65;63.76
64343;BME280;50675;53.530;-6.312;2022-09-16T00:49:41;101493.38;;;12.60;63.55
64343;BME280;50675;53.530;-6.312;2022-09-16T00:52:08;101496.81;;;12.56;63.98
64343;BME280;50675;53.530;-6.312;2022-09-16T00:54:36;101485.31;;;12.49;63.55
64343;BME280;50675;53.530;-6.312;2022-09-16T00:57:05;101481.19;;;12.46;63.90
64343;BME280;50675;53.530;-6.312;2022-09-16T00:59:34;101487.00;;;12.38;63.73
64343;BME280;50675;53.530;-6.312;2022-09-16T01:02:06;101477.94;;;12.33;63.95
64343;BME280;50675;53.530;-6.312;2022-09-16T01:04:39;101486.28;;;12.31;64.10
64343;BME280;50675;53.530;-6.312;2022-09-16T01:07:07;101482.78;;;12.31;64.01
64343;BME280;50675;53.530;-6.312;2022-09-16T01:09:33;101476.16;;;12.26;64.11
64343;BME280;50675;53.530;-6.312;2022-09-16T01:11:58;101481.25;;;12.23;63.97
64343;BME280;50675;53.530;-6.312;2022-09-16T01:14:25;101483.97;;;12.23;63.92
64343;BME280;50675;53.530;-6.312;2022-09-16T01:17:48;101487.00;;;12.26;64.15
64343;BME280;50675;53.530;-6.312;2022-09-16T01:31:38;101496.22;;;12.14;64.18
64343;BME280;50675;53.530;-6.312;2022-09-16T01:34:16;101488.34;;;12.01;64.42
64343;BME280;50675;53.530;-6.312;2022-09-16T01:44:56;101514.97;;;11.80;64.41
64343;BME280;50675;53.530;-6.312;2022-09-16T01:50:10;101518.00;;;12.19;64.63
64343;BME280;50675;53.530;-6.312;2022-09-16T01:53:06;101518.00;;;12.31;64.76
64343;BME280;50675;53.530;-6.312;2022-09-16T01:55:51;101516.81;;;12.26;64.80
64343;BME280;50675;53.530;-6.312;2022-09-16T01:59:02;101519.53;;;12.15;64.45
64343;BME280;50675;53.530;-6.312;2022-09-16T02:01:32;101519.53;;;11.68;64.78
64343;BME280;50675;53.530;-6.312;2022-09-16T02:04:05;101520.50;;;11.97;64.61
64343;BME280;50675;53.530;-6.312;2022-09-16T02:06:33;101519.09;;;12.06;64.44
64343;BME280;50675;53.530;-6.312;2022-09-16T02:09:05;101511.75;;;11.72;64.66
64343;BME280;50675;53.530;-6.312;2022-09-16T02:11:35;101522.09;;;11.52;64.76
64343;BME280;50675;53.530;-6.312;2022-09-16T02:14:06;101518.69;;;11.45;64.75
64343;BME280;50675;53.530;-6.312;2022-09-16T02:16:39;101518.09;;;11.54;64.92
64343;BME280;50675;53.530;-6.312;2022-09-16T02:19:08;101524.56;;;11.65;64.78
64343;BME280;50675;53.530;-6.312;2022-09-16T02:21:37;101519.63;;;11.62;65.06
64343;BME280;50675;53.530;-6.312;2022-09-16T02:24:09;101530.50;;;11.85;64.91
64343;BME280;50675;53.530;-6.312;2022-09-16T02:26:39;101516.63;;;11.81;65.04
64343;BME280;50675;53.530;-6.312;2022-09-16T02:29:12;101531.75;;;11.71;64.99
64343;BME280;50675;53.530;-6.312;2022-09-16T02:31:42;101525.53;;;11.59;64.73
64343;BME280;50675;53.530;-6.312;2022-09-16T02:34:14;101523.91;;;11.28;64.90
64343;BME280;50675;53.530;-6.312;2022-09-16T02:36:44;101512.63;;;11.19;64.81
64343;BME280;50675;53.530;-6.312;2022-09-16T02:39:13;101512.94;;;11.11;64.99
64343;BME280;50675;53.530;-6.312;2022-09-16T02:41:41;101520.44;;;11.09;65.33
64343;BME280;50675;53.530;-6.312;2022-09-16T02:44:08;101504.09;;;11.04;65.04
64343;BME280;50675;53.530;-6.312;2022-09-16T02:46:54;101512.53;;;11.26;65.16
64343;BME280;50675;53.530;-6.312;2022-09-16T02:49:26;101511.00;;;11.30;65.11
64343;BME280;50675;53.530;-6.312;2022-09-16T02:57:40;101522.13;;;11.22;65.30
64343;BME280;50675;53.530;-6.312;2022-09-16T03:00:07;101523.44;;;11.19;65.28
64343;BME280;50675;53.530;-6.312;2022-09-16T03:02:33;101523.91;;;11.16;65.06
64343;BME280;50675;53.530;-6.312;2022-09-16T03:05:00;101529.75;;;11.13;65.29
64343;BME280;50675;53.530;-6.312;2022-09-16T03:07:26;101528.09;;;11.12;65.14
64343;BME280;50675;53.530;-6.312;2022-09-16T03:09:52;101519.63;;;11.09;65.23
64343;BME280;50675;53.530;-6.312;2022-09-16T03:15:21;101512.00;;;11.06;65.24
64343;BME280;50675;53.530;-6.312;2022-09-16T03:32:02;101525.16;;;10.84;65.17
64343;BME280;50675;53.530;-6.312;2022-09-16T03:34:31;101515.88;;;10.80;65.36
64343;BME280;50675;53.530;-6.312;2022-09-16T03:37:04;101515.50;;;10.76;65.42
64343;BME280;50675;53.530;-6.312;2022-09-16T03:39:31;101513.63;;;10.77;65.44
64343;BME280;50675;53.530;-6.312;2022-09-16T03:42:02;101518.28;;;10.70;65.47
64343;BME280;50675;53.530;-6.312;2022-09-16T03:44:37;101523.69;;;10.70;65.43
64343;BME280;50675;53.530;-6.312;2022-09-16T03:47:04;101516.06;;;10.67;65.38
64343;BME280;50675;53.530;-6.312;2022-09-16T03:49:30;101514.41;;;10.66;65.39
64343;BME280;50675;53.530;-6.312;2022-09-16T03:51:57;101518.41;;;10.63;65.52
64343;BME280;50675;53.530;-6.312;2022-09-16T03:54:23;101520.69;;;10.60;65.58
64343;BME280;50675;53.530;-6.312;2022-09-16T03:56:49;101523.41;;;10.60;65.41
64343;BME280;50675;53.530;-6.312;2022-09-16T03:59:14;101520.94;;;10.58;65.42
64343;BME280;50675;53.530;-6.312;2022-09-16T04:01:41;101521.78;;;10.59;65.54
64343;BME280;50675;53.530;-6.312;2022-09-16T04:04:07;101525.53;;;10.58;65.55
64343;BME280;50675;53.530;-6.312;2022-09-16T04:06:33;101518.47;;;10.57;65.54
64343;BME280;50675;53.530;-6.312;2022-09-16T04:09:01;101531.38;;;10.55;65.45
64343;BME280;50675;53.530;-6.312;2022-09-16T04:11:27;101523.72;;;10.51;65.48
64343;BME280;50675;53.530;-6.312;2022-09-16T04:13:56;101526.66;;;10.50;65.69
64343;BME280;50675;53.530;-6.312;2022-09-16T04:16:23;101524.75;;;10.50;65.61
64343;BME280;50675;53.530;-6.312;2022-09-16T04:18:49;101516.09;;;10.48;65.59
64343;BME280;50675;53.530;-6.312;2022-09-16T04:21:15;101526.28;;;10.46;65.83
64343;BME280;50675;53.530;-6.312;2022-09-16T04:23:41;101523.56;;;10.46;65.69
64343;BME280;50675;53.530;-6.312;2022-09-16T04:26:08;101528.41;;;10.44;65.70
64343;BME280;50675;53.530;-6.312;2022-09-16T04:28:34;101534.84;;;10.43;65.65
64343;BME280;50675;53.530;-6.312;2022-09-16T04:31:05;101529.91;;;10.40;65.67
64343;BME280;50675;53.530;-6.312;2022-09-16T04:33:32;101521.03;;;10.33;65.71
64343;BME280;50675;53.530;-6.312;2022-09-16T04:38:34;101526.66;;;10.32;65.74
64343;BME280;50675;53.530;-6.312;2022-09-16T04:41:09;101527.31;;;10.27;65.87
64343;BME280;50675;53.530;-6.312;2022-09-16T04:43:35;101531.53;;;10.23;65.67
64343;BME280;50675;53.530;-6.312;2022-09-16T04:46:01;101533.66;;;10.21;65.75
64343;BME280;50675;53.530;-6.312;2022-09-16T04:48:27;101537.16;;;10.22;65.61
64343;BME280;50675;53.530;-6.312;2022-09-16T04:50:53;101541.13;;;10.19;65.80
64343;BME280;50675;53.530;-6.312;2022-09-16T04:53:20;101544.03;;;10.18;65.75
64343;BME280;50675;53.530;-6.312;2022-09-16T04:55:46;101543.84;;;10.19;65.87
64343;BME280;50675;53.530;-6.312;2022-09-16T04:58:13;101542.41;;;10.17;65.92
64343;BME280;50675;53.530;-6.312;2022-09-16T05:00:39;101547.00;;;10.16;65.71
64343;BME280;50675;53.530;-6.312;2022-09-16T05:03:05;101542.00;;;10.13;65.82
64343;BME280;50675;53.530;-6.312;2022-09-16T05:05:31;101554.91;;;10.11;65.95
64343;BME280;50675;53.530;-6.312;2022-09-16T05:07:57;101550.75;;;10.08;65.75
64343;BME280;50675;53.530;-6.312;2022-09-16T05:10:23;101553.47;;;10.08;65.80
64343;BME280;50675;53.530;-6.312;2022-09-16T05:12:50;101554.50;;;10.07;65.82
64343;BME280;50675;53.530;-6.312;2022-09-16T05:15:16;101570.94;;;10.06;65.90
64343;BME280;50675;53.530;-6.312;2022-09-16T05:17:42;101555.78;;;10.05;65.91
64343;BME280;50675;53.530;-6.312;2022-09-16T05:20:07;101564.50;;;10.07;65.96
64343;BME280;50675;53.530;-6.312;2022-09-16T05:22:33;101559.31;;;10.05;65.93
64343;BME280;50675;53.530;-6.312;2022-09-16T05:24:59;101557.44;;;10.06;65.88
64343;BME280;50675;53.530;-6.312;2022-09-16T05:27:24;101564.50;;;10.07;66.14
64343;BME280;50675;53.530;-6.312;2022-09-16T05:29:52;101560.34;;;10.04;66.01
64343;BME280;50675;53.530;-6.312;2022-09-16T05:32:18;101563.25;;;10.03;65.87
64343;BME280;50675;53.530;-6.312;2022-09-16T05:34:43;101567.88;;;10.02;65.97
64343;BME280;50675;53.530;-6.312;2022-09-16T05:37:09;101569.50;;;10.03;66.10
64343;BME280;50675;53.530;-6.312;2022-09-16T05:39:34;101568.66;;;10.03;66.03
64343;BME280;50675;53.530;-6.312;2022-09-16T05:42:00;101575.72;;;10.04;66.13
64343;BME280;50675;53.530;-6.312;2022-09-16T05:44:27;101573.47;;;10.01;66.26
64343;BME280;50675;53.530;-6.312;2022-09-16T05:46:53;101570.97;;;9.99;66.35
64343;BME280;50675;53.530;-6.312;2022-09-16T05:49:19;101573.69;;;9.99;66.27
64343;BME280;50675;53.530;-6.312;2022-09-16T05:51:46;101578.25;;;9.99;66.11
64343;BME280;50675;53.530;-6.312;2022-09-16T05:54:12;101580.38;;;9.97;66.00
64343;BME280;50675;53.530;-6.312;2022-09-16T05:56:38;101576.69;;;9.91;66.12
64343;BME280;50675;53.530;-6.312;2022-09-16T05:59:04;101588.88;;;9.94;66.26
64343;BME280;50675;53.530;-6.312;2022-09-16T06:01:34;101584.78;;;9.91;66.22
64343;BME280;50675;53.530;-6.312;2022-09-16T06:04:02;101589.13;;;9.92;66.27
64343;BME280;50675;53.530;-6.312;2022-09-16T06:06:33;101587.91;;;9.88;66.04
64343;BME280;50675;53.530;-6.312;2022-09-16T06:09:04;101589.50;;;9.96;66.24
64343;BME280;50675;53.530;-6.312;2022-09-16T06:11:30;101596.97;;;9.94;66.64
64343;BME280;50675;53.530;-6.312;2022-09-16T06:13:58;101605.69;;;9.96;66.34
64343;BME280;50675;53.530;-6.312;2022-09-16T06:16:26;101609.59;;;10.00;66.43
64343;BME280;50675;53.530;-6.312;2022-09-16T06:18:53;101607.06;;;10.05;66.40
64343;BME280;50675;53.530;-6.312;2022-09-16T06:21:20;101611.53;;;10.18;66.42
64343;BME280;50675;53.530;-6.312;2022-09-16T06:23:45;101612.09;;;10.26;66.66
64343;BME280;50675;53.530;-6.312;2022-09-16T06:26:14;101615.09;;;10.36;66.57
64343;BME280;50675;53.530;-6.312;2022-09-16T06:28:40;101614.22;;;10.42;66.59
64343;BME280;50675;53.530;-6.312;2022-09-16T06:31:09;101623.81;;;10.57;66.62
64343;BME280;50675;53.530;-6.312;2022-09-16T06:33:35;101621.38;;;10.73;66.64
64343;BME280;50675;53.530;-6.312;2022-09-16T06:36:12;101631.03;;;10.99;66.66
64343;BME280;50675;53.530;-6.312;2022-09-16T06:38:38;101626.34;;;11.24;66.69
64343;BME280;50675;53.530;-6.312;2022-09-16T06:41:07;101625.50;;;11.54;66.83
64343;BME280;50675;53.530;-6.312;2022-09-16T06:43:34;101626.28;;;11.84;67.01
64343;BME280;50675;53.530;-6.312;2022-09-16T06:46:05;101636.72;;;12.10;66.95
64343;BME280;50675;53.530;-6.312;2022-09-16T06:48:32;101634.13;;;12.39;66.98
64343;BME280;50675;53.530;-6.312;2022-09-16T06:51:03;101641.88;;;12.70;66.92
64343;BME280;50675;53.530;-6.312;2022-09-16T06:53:29;101646.28;;;12.99;67.03
64343;BME280;50675;53.530;-6.312;2022-09-16T06:56:05;101650.22;;;13.32;66.82
64343;BME280;50675;53.530;-6.312;2022-09-16T06:58:33;101652.09;;;13.59;66.75
64343;BME280;50675;53.530;-6.312;2022-09-16T07:01:04;101655.88;;;13.87;66.77
64343;BME280;50675;53.530;-6.312;2022-09-16T07:03:29;101650.28;;;14.10;66.35
64343;BME280;50675;53.530;-6.312;2022-09-16T07:05:59;101654.22;;;14.36;66.30
64343;BME280;50675;53.530;-6.312;2022-09-16T07:08:30;101650.69;;;14.52;66.30
64343;BME280;50675;53.530;-6.312;2022-09-16T07:10:58;101654.31;;;14.79;66.19
64343;BME280;50675;53.530;-6.312;2022-09-16T07:13:24;101656.53;;;15.04;65.87
64343;BME280;50675;53.530;-6.312;2022-09-16T07:15:50;101658.06;;;15.17;65.69
64343;BME280;50675;53.530;-6.312;2022-09-16T07:18:17;101651.59;;;15.23;65.38
64343;BME280;50675;53.530;-6.312;2022-09-16T07:20:42;101651.41;;;15.29;65.18
64343;BME280;50675;53.530;-6.312;2022-09-16T07:23:08;101658.41;;;15.25;65.00
64343;BME280;50675;53.530;-6.312;2022-09-16T07:25:34;101670.94;;;15.26;64.70
64343;BME280;50675;53.530;-6.312;2022-09-16T07:28:00;101674.38;;;15.17;64.60
64343;BME280;50675;53.530;-6.312;2022-09-16T07:30:26;101668.00;;;15.06;64.54
64343;BME280;50675;53.530;-6.312;2022-09-16T07:32:54;101663.75;;;14.94;64.38
64343;BME280;50675;53.530;-6.312;2022-09-16T07:35:21;101671.84;;;14.88;64.28
64343;BME280;50675;53.530;-6.312;2022-09-16T07:37:46;101674.75;;;14.82;64.01
64343;BME280;50675;53.530;-6.312;2022-09-16T07:40:12;101674.53;;;14.67;64.10
64343;BME280;50675;53.530;-6.312;2022-09-16T07:42:38;101677.44;;;14.60;63.97
64343;BME280;50675;53.530;-6.312;2022-09-16T07:45:05;101672.94;;;14.49;63.88
64343;BME280;50675;53.530;-6.312;2022-09-16T07:47:31;101677.72;;;14.42;63.89
64343;BME280;50675;53.530;-6.312;2022-09-16T07:49:57;101684.00;;;14.31;63.67
64343;BME280;50675;53.530;-6.312;2022-09-16T07:52:24;101685.59;;;14.27;63.63
64343;BME280;50675;53.530;-6.312;2022-09-16T07:54:54;101694.31;;;14.12;63.83
64343;BME280;50675;53.530;-6.312;2022-09-16T07:57:21;101697.69;;;14.02;63.83
64343;BME280;50675;53.530;-6.312;2022-09-16T07:59:47;101694.88;;;13.97;63.45
64343;BME280;50675;53.530;-6.312;2022-09-16T08:02:13;101694.13;;;14.02;63.71
64343;BME280;50675;53.530;-6.312;2022-09-16T08:04:39;101694.88;;;13.97;63.66
64343;BME280;50675;53.530;-6.312;2022-09-16T08:07:05;101692.16;;;13.97;63.76
64343;BME280;50675;53.530;-6.312;2022-09-16T08:09:31;101688.97;;;14.00;63.79
64343;BME280;50675;53.530;-6.312;2022-09-16T08:11:57;101690.34;;;14.03;63.62
64343;BME280;50675;53.530;-6.312;2022-09-16T08:14:23;101697.75;;;14.08;63.60
64343;BME280;50675;53.530;-6.312;2022-09-16T08:16:49;101697.75;;;14.08;63.52
64343;BME280;50675;53.530;-6.312;2022-09-16T08:19:16;101702.72;;;14.11;63.72
64343;BME280;50675;53.530;-6.312;2022-09-16T08:21:42;101706.75;;;14.08;63.65
64343;BME280;50675;53.530;-6.312;2022-09-16T08:24:08;101706.91;;;14.01;63.84
64343;BME280;50675;53.530;-6.312;2022-09-16T08:26:35;101713.75;;;14.04;63.42
64343;BME280;50675;53.530;-6.312;2022-09-16T08:29:01;101721.06;;;14.03;63.41
64343;BME280;50675;53.530;-6.312;2022-09-16T08:31:27;101713.97;;;13.86;63.37
64343;BME280;50675;53.530;-6.312;2022-09-16T08:33:52;101727.09;;;14.06;63.53
64343;BME280;50675;53.530;-6.312;2022-09-16T08:36:22;101727.75;;;14.13;63.43
64343;BME280;50675;53.530;-6.312;2022-09-16T08:38:51;101735.88;;;14.13;63.59
64343;BME280;50675;53.530;-6.312;2022-09-16T08:44:43;101738.28;;;14.26;63.44
64343;BME280;50675;53.530;-6.312;2022-09-16T08:49:57;101749.44;;;14.41;63.66
64343;BME280;50675;53.530;-6.312;2022-09-16T08:52:37;101745.91;;;14.40;63.65
64343;BME280;50675;53.530;-6.312;2022-09-16T09:26:20;101768.81;;;14.61;63.37
64343;BME280;50675;53.530;-6.312;2022-09-16T09:40:36;101778.13;;;14.65;63.00
64343;BME280;50675;53.530;-6.312;2022-09-16T09:43:27;101782.50;;;14.66;62.68
64343;BME280;50675;53.530;-6.312;2022-09-16T09:48:44;101799.06;;;14.81;62.38
64343;BME280;50675;53.530;-6.312;2022-09-16T09:51:32;101787.69;;;14.84;62.36
64343;BME280;50675;53.530;-6.312;2022-09-16T09:54:04;101773.47;;;14.99;62.32
64343;BME280;50675;53.530;-6.312;2022-09-16T09:56:40;101793.78;;;14.92;62.10
64343;BME280;50675;53.530;-6.312;2022-09-16T10:01:41;101779.56;;;15.06;61.95
64343;BME280;50675;53.530;-6.312;2022-09-16T10:04:15;101770.00;;;15.04;61.74
64343;BME280;50675;53.530;-6.312;2022-09-16T10:06:42;101768.50;;;15.13;61.64
64343;BME280;50675;53.530;-6.312;2022-09-16T10:09:14;101765.34;;;15.21;61.65
64343;BME280;50675;53.530;-6.312;2022-09-16T10:11:48;101773.84;;;15.24;61.70
64343;BME280;50675;53.530;-6.312;2022-09-16T10:14:41;101773.56;;;15.26;61.52
64343;BME280;50675;53.530;-6.312;2022-09-16T10:17:15;101773.19;;;15.17;61.15
64343;BME280;50675;53.530;-6.312;2022-09-16T10:19:57;101770.09;;;15.30;61.24
64343;BME280;50675;53.530;-6.312;2022-09-16T10:22:32;101767.38;;;15.30;61.27
64343;BME280;50675;53.530;-6.312;2022-09-16T10:25:02;101770.50;;;15.39;61.10
64343;BME280;50675;53.530;-6.312;2022-09-16T10:27:32;101754.78;;;15.46;61.05
64343;BME280;50675;53.530;-6.312;2022-09-16T10:30:14;101758.03;;;15.43;61.00
64343;BME280;50675;53.530;-6.312;2022-09-16T10:32:56;101750.00;;;15.53;60.82
64343;BME280;50675;53.530;-6.312;2022-09-16T10:35:29;101761.00;;;15.63;60.90
64343;BME280;50675;53.530;-6.312;2022-09-16T10:38:02;101770.59;;;15.49;60.74
64343;BME280;50675;53.530;-6.312;2022-09-16T10:40:28;101772.88;;;15.52;60.73
64343;BME280;50675;53.530;-6.312;2022-09-16T10:43:01;101768.91;;;15.43;60.44
64343;BME280;50675;53.530;-6.312;2022-09-16T10:45:44;101768.63;;;15.61;60.39
64343;BME280;50675;53.530;-6.312;2022-09-16T10:48:12;101766.13;;;15.60;60.37
64343;BME280;50675;53.530;-6.312;2022-09-16T10:53:35;101766.44;;;15.63;59.84
64343;BME280;50675;53.530;-6.312;2022-09-16T10:56:19;101772.41;;;15.82;59.89
64343;BME280;50675;53.530;-6.312;2022-09-16T10:58:45;101768.84;;;15.82;59.99
64343;BME280;50675;53.530;-6.312;2022-09-16T11:06:41;101782.00;;;15.90;59.51
64343;BME280;50675;53.530;-6.312;2022-09-16T11:09:26;101784.91;;;16.05;59.40
64343;BME280;50675;53.530;-6.312;2022-09-16T11:15:22;101796.94;;;16.09;59.14
64343;BME280;50675;53.530;-6.312;2022-09-16T11:20:34;101780.34;;;16.10;58.84
64343;BME280;50675;53.530;-6.312;2022-09-16T11:37:33;101762.44;;;16.51;57.94
64343;BME280;50675;53.530;-6.312;2022-09-16T11:42:33;101791.03;;;16.49;57.72
64343;BME280;50675;53.530;-6.312;2022-09-16T11:50:40;101796.81;;;16.52;57.22
64343;BME280;50675;53.530;-6.312;2022-09-16T11:53:21;101800.78;;;16.67;57.15
64343;BME280;50675;53.530;-6.312;2022-09-16T11:55:55;101792.31;;;16.68;57.20
64343;BME280;50675;53.530;-6.312;2022-09-16T11:58:34;101797.09;;;16.56;56.90
64343;BME280;50675;53.530;-6.312;2022-09-16T12:01:18;101793.38;;;16.62;56.88
64343;BME280;50675;53.530;-6.312;2022-09-16T12:03:54;101794.13;;;16.57;56.81
64343;BME280;50675;53.530;-6.312;2022-09-16T12:06:26;101783.91;;;16.75;56.77
64343;BME280;50675;53.530;-6.312;2022-09-16T12:09:02;101779.84;;;16.77;56.67
64343;BME280;50675;53.530;-6.312;2022-09-16T12:11:37;101781.97;;;16.70;56.54
64343;BME280;50675;53.530;-6.312;2022-09-16T12:14:27;101791.19;;;16.64;56.41
64343;BME280;50675;53.530;-6.312;2022-09-16T12:17:02;101802.25;;;16.52;56.16
64343;BME280;50675;53.530;-6.312;2022-09-16T12:19:35;101796.28;;;16.55;56.01
64343;BME280;50675;53.530;-6.312;2022-09-16T12:22:08;101795.97;;;16.52;55.98
64343;BME280;50675;53.530;-6.312;2022-09-16T12:29:59;101814.53;;;16.55;55.46
64343;BME280;50675;53.530;-6.312;2022-09-16T12:35:15;101811.41;;;16.68;55.38
64343;BME280;50675;53.530;-6.312;2022-09-16T12:37:49;101811.44;;;16.73;55.05
64343;BME280;50675;53.530;-6.312;2022-09-16T12:40:21;101807.38;;;16.76;55.01
64343;BME280;50675;53.530;-6.312;2022-09-16T12:43:04;101811.56;;;16.88;54.82
64343;BME280;50675;53.530;-6.312;2022-09-16T12:48:24;101806.34;;;16.82;54.66
64343;BME280;50675;53.530;-6.312;2022-09-16T13:02:35;101811.69;;;16.67;54.29
64343;BME280;50675;53.530;-6.312;2022-09-16T13:05:26;101796.41;;;16.66;54.21
64343;BME280;50675;53.530;-6.312;2022-09-16T13:07:56;101792.78;;;16.60;54.01
64343;BME280;50675;53.530;-6.312;2022-09-16T13:10:36;101789.81;;;16.61;53.98
64343;BME280;50675;53.530;-6.312;2022-09-16T13:13:04;101789.28;;;16.65;53.93
64343;BME280;50675;53.530;-6.312;2022-09-16T13:15:32;101786.50;;;16.59;53.58
64343;BME280;50675;53.530;-6.312;2022-09-16T13:23:44;101789.59;;;16.68;53.27
64343;BME280;50675;53.530;-6.312;2022-09-16T13:26:11;101792.53;;;16.61;53.08
64343;BME280;50675;53.530;-6.312;2022-09-16T13:28:41;101783.22;;;16.57;52.61
64343;BME280;50675;53.530;-6.312;2022-09-16T13:34:02;101793.50;;;16.77;52.89
64343;BME280;50675;53.530;-6.312;2022-09-16T13:36:38;101780.59;;;16.73;52.85
64343;BME280;50675;53.530;-6.312;2022-09-16T13:39:08;101787.25;;;16.82;52.58
64343;BME280;50675;53.530;-6.312;2022-09-16T13:41:46;101778.63;;;17.00;52.68
64343;BME280;50675;53.530;-6.312;2022-09-16T13:49:53;101776.44;;;17.02;52.54
64343;BME280;50675;53.530;-6.312;2022-09-16T13:52:32;101779.56;;;17.21;52.40
64343;BME280;50675;53.530;-6.312;2022-09-16T13:55:06;101786.91;;;17.10;52.38
64343;BME280;50675;53.530;-6.312;2022-09-16T14:00:22;101792.31;;;17.05;52.00
64343;BME280;50675;53.530;-6.312;2022-09-16T14:13:19;101776.94;;;16.94;51.78
64343;BME280;50675;53.530;-6.312;2022-09-16T14:15:48;101796.81;;;16.84;51.71
64343;BME280;50675;53.530;-6.312;2022-09-16T14:18:19;101787.78;;;16.84;51.45
64343;BME280;50675;53.530;-6.312;2022-09-16T14:23:29;101782.19;;;17.00;51.25
64343;BME280;50675;53.530;-6.312;2022-09-16T14:25:56;101775.88;;;16.95;51.19
64343;BME280;50675;53.530;-6.312;2022-09-16T14:28:24;101766.72;;;17.21;51.20
64343;BME280;50675;53.530;-6.312;2022-09-16T14:33:31;101780.47;;;17.36;50.99
64343;BME280;50675;53.530;-6.312;2022-09-16T14:35:58;101769.00;;;17.39;51.16
64343;BME280;50675;53.530;-6.312;2022-09-16T14:38:33;101777.78;;;17.46;50.86
64343;BME280;50675;53.530;-6.312;2022-09-16T14:41:04;101776.13;;;17.45;50.83
64343;BME280;50675;53.530;-6.312;2022-09-16T14:43:31;101786.53;;;17.43;50.73
64343;BME280;50675;53.530;-6.312;2022-09-16T14:45:57;101793.56;;;17.34;50.50
64343;BME280;50675;53.530;-6.312;2022-09-16T14:48:29;101785.94;;;17.36;50.53
64343;BME280;50675;53.530;-6.312;2022-09-16T14:50:57;101791.63;;;17.25;50.45
64343;BME280;50675;53.530;-6.312;2022-09-16T14:55:49;101784.28;;;17.35;50.25
64343;BME280;50675;53.530;-6.312;2022-09-16T14:58:15;101788.09;;;17.34;49.74
64343;BME280;50675;53.530;-6.312;2022-09-16T15:00:52;101785.94;;;17.36;50.17
64343;BME280;50675;53.530;-6.312;2022-09-16T15:05:52;101790.78;;;17.24;49.79
64343;BME280;50675;53.530;-6.312;2022-09-16T15:11:09;101783.84;;;17.06;49.79
64343;BME280;50675;53.530;-6.312;2022-09-16T15:13:37;101781.03;;;16.96;49.56
64343;BME280;50675;53.530;-6.312;2022-09-16T15:16:12;101781.34;;;16.95;49.60
64343;BME280;50675;53.530;-6.312;2022-09-16T15:18:55;101774.19;;;16.89;49.50
64343;BME280;50675;53.530;-6.312;2022-09-16T15:21:25;101773.06;;;16.85;49.37
64343;BME280;50675;53.530;-6.312;2022-09-16T15:23:55;101776.38;;;16.87;49.24
64343;BME280;50675;53.530;-6.312;2022-09-16T15:26:38;101775.50;;;16.81;49.17
64343;BME280;50675;53.530;-6.312;2022-09-16T15:29:26;101774.94;;;16.47;49.05
64343;BME280;50675;53.530;-6.312;2022-09-16T15:31:53;101767.31;;;16.49;49.02
64343;BME280;50675;53.530;-6.312;2022-09-16T15:34:21;101786.72;;;16.53;49.00
64343;BME280;50675;53.530;-6.312;2022-09-16T15:36:52;101775.28;;;16.56;49.00
64343;BME280;50675;53.530;-6.312;2022-09-16T15:39:28;101785.56;;;16.49;49.03
64343;BME280;50675;53.530;-6.312;2022-09-16T15:42:15;101777.53;;;16.64;48.90
64343;BME280;50675;53.530;-6.312;2022-09-16T15:44:50;101775.03;;;16.57;48.92
64343;BME280;50675;53.530;-6.312;2022-09-16T15:47:20;101777.19;;;16.55;49.11
64343;BME280;50675;53.530;-6.312;2022-09-16T15:50:02;101767.47;;;16.65;48.80
64343;BME280;50675;53.530;-6.312;2022-09-16T15:52:33;101769.66;;;16.63;48.71
64343;BME280;50675;53.530;-6.312;2022-09-16T15:55:01;101778.41;;;16.70;48.67
64343;BME280;50675;53.530;-6.312;2022-09-16T15:57:29;101775.66;;;16.65;48.60
64343;BME280;50675;53.530;-6.312;2022-09-16T16:00:04;101776.75;;;16.69;48.51
64343;BME280;50675;53.530;-6.312;2022-09-16T16:05:17;101775.84;;;16.90;48.44
64343;BME280;50675;53.530;-6.312;2022-09-16T16:07:53;101781.00;;;16.86;48.41
64343;BME280;50675;53.530;-6.312;2022-09-16T16:10:30;101784.41;;;16.67;48.47
64343;BME280;50675;53.530;-6.312;2022-09-16T16:12:58;101793.97;;;16.69;48.38
64343;BME280;50675;53.530;-6.312;2022-09-16T16:15:27;101789.59;;;16.68;48.41
64343;BME280;50675;53.530;-6.312;2022-09-16T16:17:57;101786.59;;;16.70;48.40
64343;BME280;50675;53.530;-6.312;2022-09-16T16:20:24;101790.41;;;16.69;48.35
64343;BME280;50675;53.530;-6.312;2022-09-16T16:22:50;101791.16;;;16.59;48.41